sensor_id;sensor_type;location;lat;lon;timestamp;temperature;humidity
12307;DHT22;6216;51.146;7.008;2024-02-04T04:33:27;10.50;99.90
12307;DHT22;6216;51.146;7.008;2024-02-04T04:38:24;10.40;99.90
12307;DHT22;6216;51.146;7.008;2024-02-04T04:40:52;10.50;99.90
12307;DHT22;6216;51.146;7.008;2024-02-04T04:43:21;10.50;99.90
12307;DHT22;6216;51.146;7.008;2024-02-04T04:45:49;10.50;99.90
12307;DHT22;6216;51.146;7.008;2024-02-04T04:48:17;10.50;99.90
12307;DHT22;6216;51.146;7.008;2024-02-04T04:50:45;10.50;99.90
12307;DHT22;6216;51.146;7.008;2024-02-04T04:53:13;10.50;99.90
12307;DHT22;6216;51.146;7.008;2024-02-04T04:55:42;10.50;99.90
12307;DHT22;6216;51.146;7.008;2024-02-04T04:58:09;10.50;99.90
12307;DHT22;6216;51.146;7.008;2024-02-04T05:00:39;10.60;99.90
12307;DHT22;6216;51.146;7.008;2024-02-04T05:03:07;10.60;99.90
12307;DHT22;6216;51.146;7.008;2024-02-04T05:08:04;10.50;99.90
12307;DHT22;6216;51.146;7.008;2024-02-04T05:10:31;10.50;99.90
12307;DHT22;6216;51.146;7.008;2024-02-04T05:12:59;10.50;99.90
12307;DHT22;6216;51.146;7.008;2024-02-04T05:15:27;10.50;99.90
12307;DHT22;6216;51.146;7.008;2024-02-04T05:17:58;10.50;99.90
12307;DHT22;6216;51.146;7.008;2024-02-04T05:20:26;10.50;99.90
12307;DHT22;6216;51.146;7.008;2024-02-04T05:22:55;10.60;99.90
12307;DHT22;6216;51.146;7.008;2024-02-04T05:25:24;10.50;99.90
12307;DHT22;6216;51.146;7.008;2024-02-04T05:27:52;10.60;99.90
12307;DHT22;6216;51.146;7.008;2024-02-04T05:30:20;10.60;99.90
12307;DHT22;6216;51.146;7.008;2024-02-04T05:32:48;10.60;99.90
12307;DHT22;6216;51.146;7.008;2024-02-04T05:35:17;10.60;99.90
12307;DHT22;6216;51.146;7.008;2024-02-04T05:37:45;10.60;99.90
12307;DHT22;6216;51.146;7.008;2024-02-04T05:40:13;10.60;99.90
12307;DHT22;6216;51.146;7.008;2024-02-04T05:42:44;10.60;99.90
12307;DHT22;6216;51.146;7.008;2024-02-04T05:45:12;10.50;99.90
12307;DHT22;6216;51.146;7.008;2024-02-04T05:47:40;10.50;99.90
12307;DHT22;6216;51.146;7.008;2024-02-04T05:50:08;10.50;99.90
12307;DHT22;6216;51.146;7.008;2024-02-04T05:52:38;10.50;99.90
12307;DHT22;6216;51.146;7.008;2024-02-04T05:55:07;10.50;99.90
12307;DHT22;6216;51.146;7.008;2024-02-04T05:57:35;10.50;99.90
12307;DHT22;6216;51.146;7.008;2024-02-04T06:00:03;10.50;99.90
12307;DHT22;6216;51.146;7.008;2024-02-04T06:02:31;10.50;99.90
12307;DHT22;6216;51.146;7.008;2024-02-04T06:05:00;10.50;99.90
12307;DHT22;6216;51.146;7.008;2024-02-04T06:07:28;10.40;99.90
12307;DHT22;6216;51.146;7.008;2024-02-04T06:09:57;10.40;99.90
12307;DHT22;6216;51.146;7.008;2024-02-04T06:12:26;10.40;99.90
12307;DHT22;6216;51.146;7.008;2024-02-04T06:14:54;10.50;99.90
12307;DHT22;6216;51.146;7.008;2024-02-04T06:17:22;10.50;99.90
12307;DHT22;6216;51.146;7.008;2024-02-04T06:19:50;10.50;99.90
12307;DHT22;6216;51.146;7.008;2024-02-04T06:22:18;10.50;99.90
12307;DHT22;6216;51.146;7.008;2024-02-04T06:24:47;10.40;99.90
12307;DHT22;6216;51.146;7.008;2024-02-04T06:27:16;10.40;99.90
12307;DHT22;6216;51.146;7.008;2024-02-04T06:29:44;10.50;99.90
12307;DHT22;6216;51.146;7.008;2024-02-04T06:32:12;10.50;99.90
12307;DHT22;6216;51.146;7.008;2024-02-04T06:34:40;10.50;99.90
12307;DHT22;6216;51.146;7.008;2024-02-04T06:37:09;10.50;99.90
12307;DHT22;6216;51.146;7.008;2024-02-04T06:39:37;10.00;99.90
12307;DHT22;6216;51.146;7.008;2024-02-04T06:42:05;10.50;99.90
12307;DHT22;6216;51.146;7.008;2024-02-04T06:44:34;10.50;99.90
12307;DHT22;6216;51.146;7.008;2024-02-04T06:47:02;10.50;99.90
12307;DHT22;6216;51.146;7.008;2024-02-04T06:49:30;10.50;99.90
12307;DHT22;6216;51.146;7.008;2024-02-04T06:51:58;10.50;99.90
12307;DHT22;6216;51.146;7.008;2024-02-04T06:54:26;10.60;99.90
12307;DHT22;6216;51.146;7.008;2024-02-04T06:56:54;10.60;99.90
12307;DHT22;6216;51.146;7.008;2024-02-04T07:01:52;10.60;99.90
12307;DHT22;6216;51.146;7.008;2024-02-04T07:04:20;10.60;99.90
12307;DHT22;6216;51.146;7.008;2024-02-04T07:06:51;10.60;99.90
12307;DHT22;6216;51.146;7.008;2024-02-04T07:09:19;10.60;99.90
12307;DHT22;6216;51.146;7.008;2024-02-04T07:11:49;10.60;99.90
12307;DHT22;6216;51.146;7.008;2024-02-04T07:14:17;10.60;99.90
12307;DHT22;6216;51.146;7.008;2024-02-04T07:16:45;10.60;99.90
12307;DHT22;6216;51.146;7.008;2024-02-04T07:19:14;10.60;99.90
12307;DHT22;6216;51.146;7.008;2024-02-04T07:21:43;10.60;99.90
12307;DHT22;6216;51.146;7.008;2024-02-04T07:24:11;10.60;99.90
12307;DHT22;6216;51.146;7.008;2024-02-04T07:26:39;10.50;99.90
12307;DHT22;6216;51.146;7.008;2024-02-04T07:29:07;10.50;99.90
12307;DHT22;6216;51.146;7.008;2024-02-04T07:31:35;10.50;99.90
12307;DHT22;6216;51.146;7.008;2024-02-04T07:34:04;10.40;99.90
12307;DHT22;6216;51.146;7.008;2024-02-04T07:36:34;10.40;99.90
12307;DHT22;6216;51.146;7.008;2024-02-04T07:39:02;10.50;99.90
12307;DHT22;6216;51.146;7.008;2024-02-04T07:41:31;10.50;99.90
12307;DHT22;6216;51.146;7.008;2024-02-04T07:43:59;10.50;99.90
12307;DHT22;6216;51.146;7.008;2024-02-04T07:46:27;10.50;99.90
12307;DHT22;6216;51.146;7.008;2024-02-04T07:48:55;10.50;99.90
12307;DHT22;6216;51.146;7.008;2024-02-04T07:51:23;10.50;99.90
12307;DHT22;6216;51.146;7.008;2024-02-04T07:53:52;10.50;99.90
12307;DHT22;6216;51.146;7.008;2024-02-04T07:56:20;10.50;99.90
12307;DHT22;6216;51.146;7.008;2024-02-04T07:58:48;10.50;99.90
12307;DHT22;6216;51.146;7.008;2024-02-04T08:01:18;10.50;99.90
12307;DHT22;6216;51.146;7.008;2024-02-04T08:03:46;10.50;99.90
12307;DHT22;6216;51.146;7.008;2024-02-04T08:06:14;10.50;99.90
12307;DHT22;6216;51.146;7.008;2024-02-04T08:08:42;10.50;99.90
12307;DHT22;6216;51.146;7.008;2024-02-04T08:11:17;10.50;99.90
12307;DHT22;6216;51.146;7.008;2024-02-04T08:13:45;10.50;99.90
12307;DHT22;6216;51.146;7.008;2024-02-04T08:16:13;10.50;99.90
12307;DHT22;6216;51.146;7.008;2024-02-04T08:18:41;10.50;99.90
12307;DHT22;6216;51.146;7.008;2024-02-04T08:21:09;10.40;99.90
12307;DHT22;6216;51.146;7.008;2024-02-04T08:23:37;10.50;99.90
12307;DHT22;6216;51.146;7.008;2024-02-04T08:26:06;10.50;99.90
12307;DHT22;6216;51.146;7.008;2024-02-04T08:28:35;10.50;99.90
12307;DHT22;6216;51.146;7.008;2024-02-04T08:31:03;10.50;99.90
12307;DHT22;6216;51.146;7.008;2024-02-04T08:33:31;10.40;99.90
12307;DHT22;6216;51.146;7.008;2024-02-04T08:35:59;10.40;99.90
12307;DHT22;6216;51.146;7.008;2024-02-04T08:38:27;10.40;99.90
12307;DHT22;6216;51.146;7.008;2024-02-04T08:40:55;10.40;99.90
12307;DHT22;6216;51.146;7.008;2024-02-04T08:43:23;10.30;99.90
12307;DHT22;6216;51.146;7.008;2024-02-04T08:45:52;10.40;99.90
12307;DHT22;6216;51.146;7.008;2024-02-04T08:48:20;10.40;99.90
12307;DHT22;6216;51.146;7.008;2024-02-04T08:50:48;10.40;99.90
12307;DHT22;6216;51.146;7.008;2024-02-04T08:53:20;10.40;99.90
12307;DHT22;6216;51.146;7.008;2024-02-04T08:55:48;10.40;99.90
12307;DHT22;6216;51.146;7.008;2024-02-04T08:58:19;10.40;99.90
12307;DHT22;6216;51.146;7.008;2024-02-04T09:00:46;10.40;99.90
12307;DHT22;6216;51.146;7.008;2024-02-04T09:03:16;10.40;99.90
12307;DHT22;6216;51.146;7.008;2024-02-04T09:05:44;10.50;99.90
12307;DHT22;6216;51.146;7.008;2024-02-04T09:08:12;10.50;99.90
12307;DHT22;6216;51.146;7.008;2024-02-04T09:10:40;10.60;99.90
12307;DHT22;6216;51.146;7.008;2024-02-04T09:13:08;10.60;99.90
12307;DHT22;6216;51.146;7.008;2024-02-04T09:15:36;10.60;99.90
12307;DHT22;6216;51.146;7.008;2024-02-04T09:18:05;10.50;99.90
12307;DHT22;6216;51.146;7.008;2024-02-04T09:20:34;10.60;99.90
12307;DHT22;6216;51.146;7.008;2024-02-04T09:23:02;10.60;99.90
12307;DHT22;6216;51.146;7.008;2024-02-04T09:25:31;10.60;99.90
12307;DHT22;6216;51.146;7.008;2024-02-04T09:27:59;10.60;99.90
12307;DHT22;6216;51.146;7.008;2024-02-04T09:30:27;10.60;99.90
12307;DHT22;6216;51.146;7.008;2024-02-04T09:32:56;10.60;99.90
12307;DHT22;6216;51.146;7.008;2024-02-04T09:35:24;10.60;99.90
12307;DHT22;6216;51.146;7.008;2024-02-04T09:37:54;10.70;99.90
12307;DHT22;6216;51.146;7.008;2024-02-04T09:40:22;10.70;99.90
12307;DHT22;6216;51.146;7.008;2024-02-04T09:42:50;10.70;99.90
12307;DHT22;6216;51.146;7.008;2024-02-04T09:45:19;10.60;99.90
12307;DHT22;6216;51.146;7.008;2024-02-04T09:47:47;10.60;99.90
12307;DHT22;6216;51.146;7.008;2024-02-04T09:50:17;10.60;99.90
12307;DHT22;6216;51.146;7.008;2024-02-04T09:52:49;10.60;99.90
12307;DHT22;6216;51.146;7.008;2024-02-04T09:55:20;10.60;99.90
12307;DHT22;6216;51.146;7.008;2024-02-04T09:57:49;10.60;99.90
12307;DHT22;6216;51.146;7.008;2024-02-04T10:00:19;10.70;99.90
12307;DHT22;6216;51.146;7.008;2024-02-04T10:02:47;10.70;99.90
12307;DHT22;6216;51.146;7.008;2024-02-04T10:05:16;10.70;99.90
12307;DHT22;6216;51.146;7.008;2024-02-04T10:07:44;10.70;99.90
12307;DHT22;6216;51.146;7.008;2024-02-04T10:10:12;10.70;99.90
12307;DHT22;6216;51.146;7.008;2024-02-04T10:12:42;10.70;99.90
12307;DHT22;6216;51.146;7.008;2024-02-04T10:15:10;10.80;99.90
12307;DHT22;6216;51.146;7.008;2024-02-04T10:17:42;10.80;99.90
12307;DHT22;6216;51.146;7.008;2024-02-04T10:20:10;10.80;99.90
12307;DHT22;6216;51.146;7.008;2024-02-04T10:22:41;10.80;99.90
12307;DHT22;6216;51.146;7.008;2024-02-04T10:25:10;10.90;99.90
12307;DHT22;6216;51.146;7.008;2024-02-04T10:27:41;10.90;99.90
12307;DHT22;6216;51.146;7.008;2024-02-04T10:30:11;10.90;99.90
12307;DHT22;6216;51.146;7.008;2024-02-04T10:32:41;11.00;99.90
12307;DHT22;6216;51.146;7.008;2024-02-04T10:35:09;11.00;99.90
12307;DHT22;6216;51.146;7.008;2024-02-04T10:37:37;11.00;99.90
12307;DHT22;6216;51.146;7.008;2024-02-04T10:40:06;11.00;99.90
12307;DHT22;6216;51.146;7.008;2024-02-04T10:42:35;11.00;99.90
12307;DHT22;6216;51.146;7.008;2024-02-04T10:45:08;11.00;99.90
12307;DHT22;6216;51.146;7.008;2024-02-04T10:47:38;11.00;99.90
12307;DHT22;6216;51.146;7.008;2024-02-04T10:50:07;10.90;99.90
12307;DHT22;6216;51.146;7.008;2024-02-04T10:52:36;11.00;99.90
12307;DHT22;6216;51.146;7.008;2024-02-04T10:55:08;10.90;99.90
12307;DHT22;6216;51.146;7.008;2024-02-04T10:57:37;10.90;99.90
12307;DHT22;6216;51.146;7.008;2024-02-04T11:00:09;11.00;99.90
12307;DHT22;6216;51.146;7.008;2024-02-04T11:02:39;11.00;99.90
12307;DHT22;6216;51.146;7.008;2024-02-04T11:05:08;11.00;99.90
12307;DHT22;6216;51.146;7.008;2024-02-04T11:07:37;11.00;99.90
12307;DHT22;6216;51.146;7.008;2024-02-04T11:10:06;11.00;99.90
12307;DHT22;6216;51.146;7.008;2024-02-04T11:12:35;11.00;99.90
12307;DHT22;6216;51.146;7.008;2024-02-04T11:15:07;11.10;99.90
12307;DHT22;6216;51.146;7.008;2024-02-04T11:17:57;11.00;99.90
12307;DHT22;6216;51.146;7.008;2024-02-04T11:20:57;11.00;99.90
12307;DHT22;6216;51.146;7.008;2024-02-04T11:23:37;11.00;99.90
12307;DHT22;6216;51.146;7.008;2024-02-04T11:26:10;11.00;99.90
12307;DHT22;6216;51.146;7.008;2024-02-04T11:28:38;10.90;99.90
12307;DHT22;6216;51.146;7.008;2024-02-04T11:31:14;10.90;99.90
12307;DHT22;6216;51.146;7.008;2024-02-04T11:33:44;10.90;99.90
12307;DHT22;6216;51.146;7.008;2024-02-04T11:36:13;10.90;99.90
12307;DHT22;6216;51.146;7.008;2024-02-04T11:38:41;10.90;99.90
12307;DHT22;6216;51.146;7.008;2024-02-04T11:41:09;10.90;99.90
12307;DHT22;6216;51.146;7.008;2024-02-04T11:43:37;10.90;99.90
12307;DHT22;6216;51.146;7.008;2024-02-04T11:46:06;10.90;99.90
12307;DHT22;6216;51.146;7.008;2024-02-04T11:48:36;10.90;99.90
12307;DHT22;6216;51.146;7.008;2024-02-04T11:51:05;11.00;99.90
12307;DHT22;6216;51.146;7.008;2024-02-04T11:53:35;11.00;99.90
12307;DHT22;6216;51.146;7.008;2024-02-04T11:56:05;11.00;99.90
12307;DHT22;6216;51.146;7.008;2024-02-04T11:58:33;11.00;99.90
12307;DHT22;6216;51.146;7.008;2024-02-04T12:01:01;11.00;99.90
12307;DHT22;6216;51.146;7.008;2024-02-04T12:03:30;11.00;99.90
12307;DHT22;6216;51.146;7.008;2024-02-04T12:06:00;11.00;99.90
12307;DHT22;6216;51.146;7.008;2024-02-04T12:08:29;11.00;99.90
12307;DHT22;6216;51.146;7.008;2024-02-04T12:11:00;11.00;99.90
12307;DHT22;6216;51.146;7.008;2024-02-04T12:13:29;11.00;99.90
12307;DHT22;6216;51.146;7.008;2024-02-04T12:15:58;11.10;99.90
12307;DHT22;6216;51.146;7.008;2024-02-04T12:18:26;11.10;99.90
12307;DHT22;6216;51.146;7.008;2024-02-04T12:20:55;11.10;99.90
12307;DHT22;6216;51.146;7.008;2024-02-04T12:23:24;11.00;99.90
12307;DHT22;6216;51.146;7.008;2024-02-04T12:25:53;11.00;99.90
12307;DHT22;6216;51.146;7.008;2024-02-04T12:28:22;11.00;99.90
12307;DHT22;6216;51.146;7.008;2024-02-04T12:30:53;11.00;99.90
12307;DHT22;6216;51.146;7.008;2024-02-04T12:33:22;11.00;99.90
12307;DHT22;6216;51.146;7.008;2024-02-04T12:35:50;11.00;99.90
12307;DHT22;6216;51.146;7.008;2024-02-04T12:38:18;10.90;99.90
12307;DHT22;6216;51.146;7.008;2024-02-04T12:40:48;10.90;99.90
12307;DHT22;6216;51.146;7.008;2024-02-04T12:43:16;10.90;99.90
12307;DHT22;6216;51.146;7.008;2024-02-04T12:45:44;10.90;99.90
12307;DHT22;6216;51.146;7.008;2024-02-04T12:48:15;10.90;99.90
12307;DHT22;6216;51.146;7.008;2024-02-04T12:50:43;10.90;99.90
12307;DHT22;6216;51.146;7.008;2024-02-04T12:53:11;10.80;99.90
12307;DHT22;6216;51.146;7.008;2024-02-04T12:55:40;10.80;99.90
12307;DHT22;6216;51.146;7.008;2024-02-04T12:58:12;10.80;99.90
12307;DHT22;6216;51.146;7.008;2024-02-04T13:00:44;10.80;99.90
12307;DHT22;6216;51.146;7.008;2024-02-04T13:03:15;10.80;99.90
12307;DHT22;6216;51.146;7.008;2024-02-04T13:05:43;10.80;99.90
12307;DHT22;6216;51.146;7.008;2024-02-04T13:08:12;10.90;99.90
12307;DHT22;6216;51.146;7.008;2024-02-04T13:10:40;10.90;99.90
12307;DHT22;6216;51.146;7.008;2024-02-04T13:13:11;10.90;99.90
12307;DHT22;6216;51.146;7.008;2024-02-04T13:15:42;10.80;99.90
12307;DHT22;6216;51.146;7.008;2024-02-04T13:18:11;10.80;99.90
12307;DHT22;6216;51.146;7.008;2024-02-04T13:20:42;10.80;99.90
12307;DHT22;6216;51.146;7.008;2024-02-04T13:23:12;10.80;99.90
12307;DHT22;6216;51.146;7.008;2024-02-04T13:25:40;10.80;99.90
12307;DHT22;6216;51.146;7.008;2024-02-04T13:28:08;10.80;99.90
12307;DHT22;6216;51.146;7.008;2024-02-04T13:30:37;10.80;99.90
12307;DHT22;6216;51.146;7.008;2024-02-04T13:33:05;10.80;99.90
12307;DHT22;6216;51.146;7.008;2024-02-04T13:35:35;10.80;99.90
12307;DHT22;6216;51.146;7.008;2024-02-04T13:38:03;10.80;99.90
12307;DHT22;6216;51.146;7.008;2024-02-04T13:40:32;10.80;99.90
12307;DHT22;6216;51.146;7.008;2024-02-04T13:43:00;10.80;99.90
12307;DHT22;6216;51.146;7.008;2024-02-04T13:45:28;10.90;99.90
12307;DHT22;6216;51.146;7.008;2024-02-04T13:47:57;10.90;99.90
12307;DHT22;6216;51.146;7.008;2024-02-04T13:50:25;10.90;99.90
12307;DHT22;6216;51.146;7.008;2024-02-04T13:52:53;11.00;99.90
12307;DHT22;6216;51.146;7.008;2024-02-04T13:55:21;11.00;99.90
12307;DHT22;6216;51.146;7.008;2024-02-04T13:57:49;11.00;99.90
12307;DHT22;6216;51.146;7.008;2024-02-04T14:00:17;11.10;99.90
12307;DHT22;6216;51.146;7.008;2024-02-04T14:02:45;11.10;99.90
12307;DHT22;6216;51.146;7.008;2024-02-04T14:05:14;11.10;99.90
12307;DHT22;6216;51.146;7.008;2024-02-04T14:07:42;11.10;99.90
12307;DHT22;6216;51.146;7.008;2024-02-04T14:10:10;11.10;99.90
12307;DHT22;6216;51.146;7.008;2024-02-04T14:12:39;11.10;99.90
12307;DHT22;6216;51.146;7.008;2024-02-04T14:15:09;11.10;99.90
12307;DHT22;6216;51.146;7.008;2024-02-04T14:17:36;11.10;99.90
12307;DHT22;6216;51.146;7.008;2024-02-04T14:20:08;11.10;99.90
12307;DHT22;6216;51.146;7.008;2024-02-04T14:22:38;11.10;99.90
12307;DHT22;6216;51.146;7.008;2024-02-04T14:25:06;11.10;99.90
12307;DHT22;6216;51.146;7.008;2024-02-04T14:27:35;11.10;99.90
12307;DHT22;6216;51.146;7.008;2024-02-04T14:30:04;11.10;99.90
12307;DHT22;6216;51.146;7.008;2024-02-04T14:32:33;11.10;99.90
12307;DHT22;6216;51.146;7.008;2024-02-04T14:35:01;11.10;99.90
12307;DHT22;6216;51.146;7.008;2024-02-04T14:37:31;11.10;99.90
12307;DHT22;6216;51.146;7.008;2024-02-04T14:40:01;11.10;99.90
12307;DHT22;6216;51.146;7.008;2024-02-04T14:42:30;11.00;99.90
12307;DHT22;6216;51.146;7.008;2024-02-04T14:44:58;11.00;99.90
12307;DHT22;6216;51.146;7.008;2024-02-04T14:47:26;11.00;99.90
12307;DHT22;6216;51.146;7.008;2024-02-04T14:49:55;11.00;99.90
12307;DHT22;6216;51.146;7.008;2024-02-04T14:52:23;11.10;99.90
12307;DHT22;6216;51.146;7.008;2024-02-04T14:54:51;11.10;99.90
12307;DHT22;6216;51.146;7.008;2024-02-04T14:57:21;11.10;99.90
12307;DHT22;6216;51.146;7.008;2024-02-04T14:59:48;11.10;99.90
12307;DHT22;6216;51.146;7.008;2024-02-04T15:02:16;11.10;99.90
12307;DHT22;6216;51.146;7.008;2024-02-04T15:04:44;11.10;99.90
12307;DHT22;6216;51.146;7.008;2024-02-04T15:07:13;11.00;99.90
12307;DHT22;6216;51.146;7.008;2024-02-04T15:09:41;11.10;99.90
12307;DHT22;6216;51.146;7.008;2024-02-04T15:12:10;11.10;99.90
12307;DHT22;6216;51.146;7.008;2024-02-04T15:14:42;11.10;99.90
12307;DHT22;6216;51.146;7.008;2024-02-04T15:17:11;11.10;99.90
12307;DHT22;6216;51.146;7.008;2024-02-04T15:19:39;11.10;99.90
12307;DHT22;6216;51.146;7.008;2024-02-04T15:22:08;11.10;99.90
12307;DHT22;6216;51.146;7.008;2024-02-04T15:24:36;11.10;99.90
12307;DHT22;6216;51.146;7.008;2024-02-04T15:27:06;11.10;99.90
12307;DHT22;6216;51.146;7.008;2024-02-04T15:29:35;11.10;99.90
12307;DHT22;6216;51.146;7.008;2024-02-04T15:32:07;11.10;99.90
12307;DHT22;6216;51.146;7.008;2024-02-04T15:34:35;11.10;99.90
12307;DHT22;6216;51.146;7.008;2024-02-04T15:37:04;11.10;99.90
12307;DHT22;6216;51.146;7.008;2024-02-04T15:39:33;11.10;99.90
12307;DHT22;6216;51.146;7.008;2024-02-04T15:42:01;11.10;99.90
12307;DHT22;6216;51.146;7.008;2024-02-04T15:44:29;11.10;99.90
12307;DHT22;6216;51.146;7.008;2024-02-04T15:46:59;11.10;99.90
12307;DHT22;6216;51.146;7.008;2024-02-04T15:49:30;11.10;99.90
12307;DHT22;6216;51.146;7.008;2024-02-04T15:51:59;11.10;99.90
12307;DHT22;6216;51.146;7.008;2024-02-04T15:54:27;11.20;99.90
12307;DHT22;6216;51.146;7.008;2024-02-04T15:56:59;11.20;99.90
12307;DHT22;6216;51.146;7.008;2024-02-04T15:59:41;11.20;99.90
12307;DHT22;6216;51.146;7.008;2024-02-04T16:02:13;11.10;99.90
12307;DHT22;6216;51.146;7.008;2024-02-04T16:04:43;11.10;99.90
12307;DHT22;6216;51.146;7.008;2024-02-04T16:07:13;11.10;99.90
12307;DHT22;6216;51.146;7.008;2024-02-04T16:09:43;11.10;99.90
12307;DHT22;6216;51.146;7.008;2024-02-04T16:12:17;11.10;99.90
12307;DHT22;6216;51.146;7.008;2024-02-04T16:14:48;11.10;99.90
12307;DHT22;6216;51.146;7.008;2024-02-04T16:17:18;11.10;99.90
12307;DHT22;6216;51.146;7.008;2024-02-04T16:19:48;11.10;99.90
12307;DHT22;6216;51.146;7.008;2024-02-04T16:22:18;11.10;99.90
12307;DHT22;6216;51.146;7.008;2024-02-04T16:24:47;11.10;99.90
12307;DHT22;6216;51.146;7.008;2024-02-04T16:27:15;11.10;99.90
12307;DHT22;6216;51.146;7.008;2024-02-04T16:29:43;11.10;99.90
12307;DHT22;6216;51.146;7.008;2024-02-04T16:32:11;11.10;99.90
12307;DHT22;6216;51.146;7.008;2024-02-04T16:34:40;11.10;99.90
12307;DHT22;6216;51.146;7.008;2024-02-04T16:37:09;11.10;99.90
12307;DHT22;6216;51.146;7.008;2024-02-04T16:39:37;11.10;99.90
12307;DHT22;6216;51.146;7.008;2024-02-04T16:42:07;11.10;99.90
12307;DHT22;6216;51.146;7.008;2024-02-04T16:44:35;11.10;99.90
12307;DHT22;6216;51.146;7.008;2024-02-04T16:47:03;11.10;99.90
12307;DHT22;6216;51.146;7.008;2024-02-04T16:49:31;11.10;99.90
12307;DHT22;6216;51.146;7.008;2024-02-04T16:51:59;11.00;99.90
12307;DHT22;6216;51.146;7.008;2024-02-04T16:54:29;11.00;99.90
12307;DHT22;6216;51.146;7.008;2024-02-04T16:56:57;11.00;99.90
12307;DHT22;6216;51.146;7.008;2024-02-04T16:59:27;11.10;99.90
12307;DHT22;6216;51.146;7.008;2024-02-04T17:01:55;11.10;99.90
12307;DHT22;6216;51.146;7.008;2024-02-04T17:04:24;11.10;99.90
12307;DHT22;6216;51.146;7.008;2024-02-04T17:06:53;11.10;99.90
12307;DHT22;6216;51.146;7.008;2024-02-04T17:09:21;11.10;99.90
12307;DHT22;6216;51.146;7.008;2024-02-04T17:11:51;11.10;99.90
12307;DHT22;6216;51.146;7.008;2024-02-04T17:14:21;11.10;99.90
12307;DHT22;6216;51.146;7.008;2024-02-04T17:16:56;11.10;99.90
12307;DHT22;6216;51.146;7.008;2024-02-04T17:19:35;11.10;99.90
12307;DHT22;6216;51.146;7.008;2024-02-04T17:22:10;11.20;99.90
12307;DHT22;6216;51.146;7.008;2024-02-04T17:24:44;11.10;99.90
12307;DHT22;6216;51.146;7.008;2024-02-04T17:27:15;11.10;99.90
12307;DHT22;6216;51.146;7.008;2024-02-04T17:29:44;11.10;99.90
12307;DHT22;6216;51.146;7.008;2024-02-04T17:32:13;11.10;99.90
12307;DHT22;6216;51.146;7.008;2024-02-04T17:34:42;11.10;99.90
12307;DHT22;6216;51.146;7.008;2024-02-04T17:37:10;11.10;99.90
12307;DHT22;6216;51.146;7.008;2024-02-04T17:39:38;11.10;99.90
12307;DHT22;6216;51.146;7.008;2024-02-04T17:42:07;11.10;99.90
12307;DHT22;6216;51.146;7.008;2024-02-04T17:44:38;11.10;99.90
12307;DHT22;6216;51.146;7.008;2024-02-04T17:47:07;11.00;99.90
12307;DHT22;6216;51.146;7.008;2024-02-04T17:49:34;11.10;99.90
12307;DHT22;6216;51.146;7.008;2024-02-04T17:52:03;11.10;99.90
12307;DHT22;6216;51.146;7.008;2024-02-04T17:54:31;11.10;99.90
12307;DHT22;6216;51.146;7.008;2024-02-04T17:57:01;11.10;99.90
12307;DHT22;6216;51.146;7.008;2024-02-04T17:59:33;11.00;99.90
12307;DHT22;6216;51.146;7.008;2024-02-04T18:02:03;11.00;99.90
12307;DHT22;6216;51.146;7.008;2024-02-04T18:04:31;11.00;99.90
12307;DHT22;6216;51.146;7.008;2024-02-04T18:06:59;11.00;99.90
12307;DHT22;6216;51.146;7.008;2024-02-04T18:09:27;11.00;99.90
12307;DHT22;6216;51.146;7.008;2024-02-04T18:11:56;11.00;99.90
12307;DHT22;6216;51.146;7.008;2024-02-04T18:14:24;11.00;99.90
12307;DHT22;6216;51.146;7.008;2024-02-04T18:16:52;11.00;99.90
12307;DHT22;6216;51.146;7.008;2024-02-04T18:19:21;11.00;99.90
12307;DHT22;6216;51.146;7.008;2024-02-04T18:21:50;11.00;99.90
12307;DHT22;6216;51.146;7.008;2024-02-04T18:24:17;11.00;99.90
12307;DHT22;6216;51.146;7.008;2024-02-04T18:26:45;11.00;99.90
12307;DHT22;6216;51.146;7.008;2024-02-04T18:29:14;11.00;99.90
12307;DHT22;6216;51.146;7.008;2024-02-04T18:31:42;10.90;99.90
12307;DHT22;6216;51.146;7.008;2024-02-04T18:34:12;10.90;99.90
12307;DHT22;6216;51.146;7.008;2024-02-04T18:36:42;10.90;99.90
12307;DHT22;6216;51.146;7.008;2024-02-04T18:39:10;10.90;99.90
12307;DHT22;6216;51.146;7.008;2024-02-04T18:41:38;10.90;99.90
12307;DHT22;6216;51.146;7.008;2024-02-04T18:44:07;10.90;99.90
12307;DHT22;6216;51.146;7.008;2024-02-04T18:46:36;10.90;99.90
12307;DHT22;6216;51.146;7.008;2024-02-04T18:49:04;10.80;99.90
12307;DHT22;6216;51.146;7.008;2024-02-04T18:51:32;10.80;99.90
12307;DHT22;6216;51.146;7.008;2024-02-04T18:54:02;10.80;99.90
12307;DHT22;6216;51.146;7.008;2024-02-04T18:56:30;10.80;99.90
12307;DHT22;6216;51.146;7.008;2024-02-04T18:58:59;10.80;99.90
12307;DHT22;6216;51.146;7.008;2024-02-04T19:01:26;10.70;99.90
12307;DHT22;6216;51.146;7.008;2024-02-04T19:03:57;10.70;99.90
12307;DHT22;6216;51.146;7.008;2024-02-04T19:06:25;10.70;99.90
12307;DHT22;6216;51.146;7.008;2024-02-04T19:08:54;10.70;99.90
12307;DHT22;6216;51.146;7.008;2024-02-04T19:11:23;10.70;99.90
12307;DHT22;6216;51.146;7.008;2024-02-04T19:13:51;10.60;99.90
12307;DHT22;6216;51.146;7.008;2024-02-04T19:16:21;10.60;99.90
12307;DHT22;6216;51.146;7.008;2024-02-04T19:18:50;10.60;99.90
12307;DHT22;6216;51.146;7.008;2024-02-04T19:21:19;10.60;99.90
12307;DHT22;6216;51.146;7.008;2024-02-04T19:23:48;10.60;99.90
12307;DHT22;6216;51.146;7.008;2024-02-04T19:26:16;10.60;99.90
12307;DHT22;6216;51.146;7.008;2024-02-04T19:28:45;10.60;99.90
12307;DHT22;6216;51.146;7.008;2024-02-04T19:31:13;10.50;99.90
12307;DHT22;6216;51.146;7.008;2024-02-04T19:33:41;10.60;99.90
12307;DHT22;6216;51.146;7.008;2024-02-04T19:36:09;10.60;99.90
12307;DHT22;6216;51.146;7.008;2024-02-04T19:38:37;10.50;99.90
12307;DHT22;6216;51.146;7.008;2024-02-04T19:41:06;10.50;99.90
12307;DHT22;6216;51.146;7.008;2024-02-04T19:43:34;10.50;99.90
12307;DHT22;6216;51.146;7.008;2024-02-04T19:46:03;10.50;99.90
12307;DHT22;6216;51.146;7.008;2024-02-04T19:48:32;10.50;99.90
12307;DHT22;6216;51.146;7.008;2024-02-04T19:51:00;10.40;99.90
12307;DHT22;6216;51.146;7.008;2024-02-04T19:53:29;10.40;99.90
12307;DHT22;6216;51.146;7.008;2024-02-04T19:55:57;10.40;99.90
12307;DHT22;6216;51.146;7.008;2024-02-04T19:58:25;10.40;99.90
12307;DHT22;6216;51.146;7.008;2024-02-04T20:00:53;10.40;99.90
12307;DHT22;6216;51.146;7.008;2024-02-04T20:03:23;10.40;99.90
12307;DHT22;6216;51.146;7.008;2024-02-04T20:05:51;10.40;99.90
12307;DHT22;6216;51.146;7.008;2024-02-04T20:08:19;10.40;99.90
12307;DHT22;6216;51.146;7.008;2024-02-04T20:10:48;10.40;99.90
12307;DHT22;6216;51.146;7.008;2024-02-04T20:13:16;10.40;99.90
12307;DHT22;6216;51.146;7.008;2024-02-04T20:15:44;10.40;99.90
12307;DHT22;6216;51.146;7.008;2024-02-04T20:18:12;10.40;99.90
12307;DHT22;6216;51.146;7.008;2024-02-04T20:20:42;10.40;99.90
12307;DHT22;6216;51.146;7.008;2024-02-04T20:23:10;10.40;99.90
12307;DHT22;6216;51.146;7.008;2024-02-04T20:25:38;10.40;99.90
12307;DHT22;6216;51.146;7.008;2024-02-04T20:28:07;10.40;99.90
12307;DHT22;6216;51.146;7.008;2024-02-04T20:30:35;10.40;99.90
12307;DHT22;6216;51.146;7.008;2024-02-04T20:33:03;10.40;99.90
12307;DHT22;6216;51.146;7.008;2024-02-04T20:35:31;10.40;99.90